createdAt,value
2022-11-30T00:01:31.839Z,100557.03
2022-11-30T00:03:59.677Z,100532.13
2022-11-30T00:06:27.397Z,100531.31
2022-11-30T00:08:56.963Z,100566.22
2022-11-30T00:11:27.230Z,100570.53
2022-11-30T00:13:55.278Z,100565.41
2022-11-30T00:16:23.333Z,100563.25
2022-11-30T00:18:52.374Z,100540.28
2022-11-30T00:21:20.074Z,100565.44
2022-11-30T00:23:48.707Z,100562.50
2022-11-30T00:26:19.647Z,100551.41
2022-11-30T00:28:47.867Z,100536.28
2022-11-30T00:31:17.984Z,100536.75
2022-11-30T00:33:46.443Z,100561.69
2022-11-30T00:36:17.001Z,100547.13
2022-11-30T00:38:45.800Z,100569.06
2022-11-30T00:41:14.126Z,100575.81
2022-11-30T00:43:42.423Z,100547.13
2022-11-30T00:46:11.201Z,100553.06
2022-11-30T00:48:40.397Z,100559.50
2022-11-30T00:51:09.886Z,100563.88
2022-11-30T00:53:38.177Z,100523.88
2022-11-30T00:56:07.495Z,100524.69
2022-11-30T00:58:35.497Z,100567.66
2022-11-30T01:01:03.967Z,100520.88
2022-11-30T01:03:31.930Z,100559.06
2022-11-30T01:06:08.315Z,100513.91
2022-11-30T01:08:36.185Z,100532.53
2022-11-30T01:11:12.605Z,100538.78
2022-11-30T01:13:40.318Z,100561.78
2022-11-30T01:16:15.972Z,100573.19
2022-11-30T01:18:44.719Z,100566.38
2022-11-30T01:21:16.432Z,100569.69
2022-11-30T01:23:44.866Z,100571.06
2022-11-30T01:26:13.043Z,100573.19
2022-11-30T01:28:46.513Z,100547.00
2022-11-30T01:31:14.879Z,100576.78
2022-11-30T01:33:43.336Z,100459.09
2022-11-30T01:36:16.688Z,100547.28
2022-11-30T01:38:47.794Z,100472.06
2022-11-30T01:41:21.992Z,100482.88
2022-11-30T01:44:15.537Z,100562.63
2022-11-30T01:46:57.285Z,100555.38
2022-11-30T01:49:34.329Z,100585.25
2022-11-30T01:52:04.813Z,100571.69
2022-11-30T01:54:41.944Z,100561.72
2022-11-30T01:57:20.169Z,100568.44
2022-11-30T01:59:51.540Z,100514.31
2022-11-30T02:02:24.277Z,100567.56
2022-11-30T02:04:52.115Z,100480.72
2022-11-30T02:07:20.045Z,100505.59
2022-11-30T02:09:48.157Z,100553.53
2022-11-30T02:12:30.189Z,100565.97
2022-11-30T02:15:05.835Z,100565.81
2022-11-30T02:17:48.681Z,100553.03
2022-11-30T02:20:37.407Z,100512.97
2022-11-30T02:23:20.481Z,100557.06
2022-11-30T02:26:05.344Z,100561.41
2022-11-30T02:28:57.710Z,100565.22
2022-11-30T02:31:39.058Z,100548.75
2022-11-30T02:34:09.956Z,100529.81
2022-11-30T02:36:38.478Z,100562.03
2022-11-30T02:39:07.375Z,100499.50
2022-11-30T02:41:38.214Z,100570.66
2022-11-30T02:44:09.839Z,100520.84
2022-11-30T02:46:51.265Z,100554.06
2022-11-30T02:49:31.875Z,100549.22
2022-11-30T02:52:01.628Z,100486.72
2022-11-30T02:54:29.700Z,100547.84
2022-11-30T02:56:58.205Z,100543.09
2022-11-30T02:59:26.047Z,100541.97
2022-11-30T03:01:53.983Z,100479.22
2022-11-30T03:04:21.730Z,100519.75
2022-11-30T03:06:49.549Z,100520.81
2022-11-30T03:09:17.255Z,100549.25
2022-11-30T03:11:44.970Z,100506.44
2022-11-30T03:14:13.874Z,100528.41
2022-11-30T03:16:41.641Z,100553.56
2022-11-30T03:19:09.488Z,100554.88
2022-11-30T03:21:37.110Z,100532.44
2022-11-30T03:24:04.875Z,100550.56
2022-11-30T03:26:33.043Z,100514.84
2022-11-30T03:29:00.938Z,100533.75
2022-11-30T03:31:28.834Z,100466.16
2022-11-30T03:33:56.842Z,100530.81
2022-11-30T03:36:25.766Z,100550.31
2022-11-30T03:38:53.616Z,100515.16
2022-11-30T03:41:21.423Z,100517.28
2022-11-30T03:43:49.252Z,100550.56
2022-11-30T03:46:17.522Z,100538.44
2022-11-30T03:48:45.332Z,100545.16
2022-11-30T03:51:13.913Z,100533.22
2022-11-30T03:53:42.436Z,100511.59
2022-11-30T03:56:11.407Z,100547.84
2022-11-30T03:58:39.246Z,100540.81
2022-11-30T04:01:10.099Z,100527.56
2022-11-30T04:03:38.937Z,100499.13
2022-11-30T04:06:08.198Z,100463.44
2022-11-30T04:08:36.591Z,100538.09
2022-11-30T04:11:06.006Z,100543.22
2022-11-30T04:13:35.867Z,100555.19
2022-11-30T04:16:04.533Z,100548.69
2022-11-30T04:18:33.645Z,100546.25
2022-11-30T04:21:02.162Z,100543.00
2022-11-30T04:23:32.201Z,100527.06
2022-11-30T04:25:59.980Z,100520.31
2022-11-30T04:28:27.794Z,100518.19
2022-11-30T04:30:55.629Z,100544.19
2022-11-30T04:33:23.864Z,100556.38
2022-11-30T04:35:58.878Z,100553.38
2022-11-30T04:38:27.269Z,100554.47
2022-11-30T04:40:55.542Z,100519.81
2022-11-30T04:43:23.876Z,100561.53
2022-11-30T04:45:52.059Z,100518.50
2022-11-30T04:48:20.303Z,100532.88
2022-11-30T04:50:48.274Z,100524.44
2022-11-30T04:53:17.803Z,100573.53
2022-11-30T04:55:45.692Z,100571.91
2022-11-30T04:58:13.332Z,100514.00
2022-11-30T05:00:41.004Z,100518.34
2022-11-30T05:03:08.714Z,100522.69
2022-11-30T05:05:36.636Z,100571.44
2022-11-30T05:08:04.415Z,100561.44
2022-11-30T05:10:34.009Z,100526.03
2022-11-30T05:13:01.676Z,100587.22
2022-11-30T05:15:29.404Z,100565.00
2022-11-30T05:18:01.883Z,100570.38
2022-11-30T05:20:29.685Z,100495.38
2022-11-30T05:22:57.663Z,100581.97
2022-11-30T05:25:25.280Z,100528.09
2022-11-30T05:27:53.047Z,100559.28
2022-11-30T05:30:20.848Z,100594.22
2022-11-30T05:32:48.615Z,100548.19
2022-11-30T05:35:16.376Z,100551.44
2022-11-30T05:37:44.251Z,100583.38
2022-11-30T05:40:12.592Z,100542.78
2022-11-30T05:42:40.401Z,100581.22
2022-11-30T05:45:08.503Z,100553.88
2022-11-30T05:47:36.681Z,100575.28
2022-11-30T05:50:05.013Z,100570.09
2022-11-30T05:52:32.920Z,100581.16
2022-11-30T05:55:00.688Z,100574.31
2022-11-30T05:57:28.889Z,100580.59
2022-11-30T05:59:56.557Z,100576.78
2022-11-30T06:02:28.141Z,100589.19
2022-11-30T06:04:56.253Z,100545.84
2022-11-30T06:07:24.162Z,100553.41
2022-11-30T06:09:52.097Z,100540.44
2022-11-30T06:12:19.796Z,100504.72
2022-11-30T06:14:47.850Z,100574.28
2022-11-30T06:17:15.904Z,100585.63
2022-11-30T06:19:43.781Z,100549.91
2022-11-30T06:22:11.379Z,100492.81
2022-11-30T06:24:39.033Z,100544.25
2022-11-30T06:27:06.804Z,100545.28
2022-11-30T06:29:34.399Z,100560.75
2022-11-30T06:32:02.417Z,100599.47
2022-11-30T06:34:33.788Z,100571.28
2022-11-30T06:37:01.563Z,100539.91
2022-11-30T06:39:57.916Z,100538.53
2022-11-30T06:42:17.021Z,100598.41
2022-11-30T06:44:44.802Z,100578.34
2022-11-30T06:47:12.863Z,100571.56
2022-11-30T06:49:40.820Z,100581.25
2022-11-30T06:52:08.543Z,100577.72
2022-11-30T06:54:36.339Z,100580.44
2022-11-30T06:57:04.771Z,100561.53
2022-11-30T06:59:32.637Z,100549.09
2022-11-30T07:02:05.955Z,100576.19
2022-11-30T07:04:36.024Z,100602.97
2022-11-30T07:07:03.843Z,100600.56
2022-11-30T07:09:33.644Z,100565.09
2022-11-30T07:12:02.074Z,100604.66
2022-11-30T07:14:31.029Z,100584.91
2022-11-30T07:16:59.175Z,100580.31
2022-11-30T07:19:27.019Z,100591.91
2022-11-30T07:21:54.754Z,100599.78
2022-11-30T07:24:42.025Z,100617.44
2022-11-30T07:27:10.180Z,100614.72
2022-11-30T07:29:37.967Z,100576.03
2022-11-30T07:32:06.035Z,100563.31
2022-11-30T07:34:35.496Z,100611.53
2022-11-30T07:37:03.097Z,100608.53
2022-11-30T07:39:33.810Z,100625.06
2022-11-30T07:42:02.043Z,100567.88
2022-11-30T07:44:29.788Z,100625.00
2022-11-30T07:46:57.584Z,100601.72
2022-11-30T07:49:25.363Z,100626.31
2022-11-30T07:51:53.073Z,100609.38
2022-11-30T07:54:20.818Z,100636.63
2022-11-30T07:56:48.554Z,100603.28
2022-11-30T07:59:16.195Z,100608.72
2022-11-30T08:01:44.053Z,100613.31
2022-11-30T08:04:14.477Z,100527.50
2022-11-30T08:06:42.285Z,100627.63
2022-11-30T08:09:17.825Z,100574.06
2022-11-30T08:11:48.883Z,100610.31
2022-11-30T08:14:16.719Z,100637.38
2022-11-30T08:16:44.901Z,100636.81
2022-11-30T08:19:12.509Z,100550.16
2022-11-30T08:21:40.228Z,100587.53
2022-11-30T08:24:13.367Z,100646.28
2022-11-30T08:26:41.382Z,100642.13
2022-11-30T08:29:11.788Z,100639.72
2022-11-30T08:31:39.837Z,100630.47
2022-11-30T08:34:11.386Z,100615.06
2022-11-30T08:36:40.938Z,100614.03
2022-11-30T08:39:11.425Z,100624.31
2022-11-30T08:41:39.620Z,100628.38
2022-11-30T08:44:07.632Z,100636.72
2022-11-30T08:46:50.798Z,100645.44
2022-11-30T08:49:22.908Z,100609.72
2022-11-30T08:54:45.414Z,100643.56
2022-11-30T08:57:16.179Z,100627.56
2022-11-30T08:59:44.763Z,100648.41
2022-11-30T09:02:17.032Z,100648.63
2022-11-30T09:04:45.478Z,100625.34
2022-11-30T09:07:13.515Z,100595.84
2022-11-30T09:09:41.659Z,100622.38
2022-11-30T09:12:09.439Z,100642.63
2022-11-30T09:14:37.392Z,100572.81
2022-11-30T09:17:05.102Z,100669.16
2022-11-30T09:19:32.934Z,100642.03
2022-11-30T09:22:00.767Z,100665.09
2022-11-30T09:24:28.668Z,100664.78
2022-11-30T09:26:59.997Z,100615.78
2022-11-30T09:29:28.033Z,100632.84
2022-11-30T09:31:56.268Z,100658.25
2022-11-30T09:34:24.046Z,100548.44
2022-11-30T09:36:52.081Z,100628.22
2022-11-30T09:39:20.392Z,100650.09
2022-11-30T09:42:14.447Z,100659.34
2022-11-30T09:45:02.514Z,100664.22
2022-11-30T09:47:57.669Z,100666.41
2022-11-30T09:50:30.081Z,100669.63
2022-11-30T09:53:02.955Z,100670.72
2022-11-30T09:55:36.441Z,100647.91
2022-11-30T09:58:06.462Z,100665.28
2022-11-30T10:00:35.440Z,100578.41
2022-11-30T10:03:06.081Z,100596.00
2022-11-30T10:05:52.367Z,100662.00
2022-11-30T10:09:21.657Z,100649.56
2022-11-30T10:12:01.887Z,100616.25
2022-11-30T10:14:37.600Z,100623.81
2022-11-30T10:17:21.955Z,100645.13
2022-11-30T10:20:28.773Z,100658.69
2022-11-30T10:23:36.165Z,100661.09
2022-11-30T10:26:12.316Z,100641.88
2022-11-30T10:28:54.120Z,100654.34
2022-11-30T10:31:33.631Z,100632.75
2022-11-30T10:34:20.448Z,100657.56
2022-11-30T10:36:55.394Z,100641.31
2022-11-30T10:39:30.851Z,100551.78
2022-11-30T10:42:14.956Z,100560.47
2022-11-30T10:44:47.021Z,100580.19
2022-11-30T10:47:22.613Z,100613.69
2022-11-30T10:49:51.609Z,100638.13
2022-11-30T10:52:26.667Z,100597.50
2022-11-30T10:55:02.237Z,100622.09
2022-11-30T10:57:32.775Z,100627.22
2022-11-30T11:00:05.566Z,100611.50
2022-11-30T11:02:39.232Z,100622.09
2022-11-30T11:05:28.556Z,100603.63
2022-11-30T11:08:06.509Z,100596.31
2022-11-30T11:10:44.389Z,100615.84
2022-11-30T11:13:20.039Z,100612.00
2022-11-30T11:15:59.709Z,100562.69
2022-11-30T11:18:32.980Z,100584.31
2022-11-30T11:21:08.290Z,100599.41
2022-11-30T11:23:41.644Z,100582.03
2022-11-30T11:26:22.779Z,100595.81
2022-11-30T11:28:52.909Z,100588.75
2022-11-30T11:31:42.932Z,100589.00
2022-11-30T11:34:26.210Z,100502.19
2022-11-30T11:37:19.603Z,100592.53
2022-11-30T11:40:08.641Z,100589.00
2022-11-30T11:42:43.201Z,100546.75
2022-11-30T11:45:36.687Z,100490.22
2022-11-30T11:48:12.740Z,100582.47
2022-11-30T11:53:51.538Z,100579.75
2022-11-30T11:56:27.456Z,100571.88
2022-11-30T11:59:21.094Z,100513.16
2022-11-30T12:02:16.953Z,100573.72
2022-11-30T12:04:48.546Z,100524.50
2022-11-30T12:07:34.489Z,100570.78
2022-11-30T12:10:52.530Z,100569.97
2022-11-30T12:13:38.830Z,100581.88
2022-11-30T12:16:15.791Z,100558.47
2022-11-30T12:18:56.397Z,100559.81
2022-11-30T12:21:42.335Z,100565.25
2022-11-30T12:24:45.759Z,100544.72
2022-11-30T12:27:28.044Z,100537.47
2022-11-30T12:30:11.599Z,100543.84
2022-11-30T12:33:05.166Z,100547.69
2022-11-30T12:35:57.869Z,100553.56
2022-11-30T12:38:37.710Z,100552.19
2022-11-30T12:41:14.896Z,100551.38
2022-11-30T12:43:51.875Z,100544.31
2022-11-30T12:46:40.168Z,100545.94
2022-11-30T12:49:13.920Z,100549.19
2022-11-30T12:52:08.127Z,100536.69
2022-11-30T12:54:44.106Z,100540.50
2022-11-30T12:57:19.483Z,100533.47
2022-11-30T13:00:09.451Z,100530.19
2022-11-30T13:03:10.282Z,100530.41
2022-11-30T13:05:51.523Z,100528.00
2022-11-30T13:08:26.562Z,100528.81
2022-11-30T13:11:04.234Z,100464.94
2022-11-30T13:13:36.333Z,100520.84
2022-11-30T13:16:08.672Z,100479.25
2022-11-30T13:18:37.581Z,100519.59
2022-11-30T13:21:26.006Z,100487.63
2022-11-30T13:24:10.279Z,100522.47
2022-11-30T13:26:46.096Z,100517.91
2022-11-30T13:29:18.300Z,100517.13
2022-11-30T13:32:33.816Z,100519.53
2022-11-30T13:35:30.464Z,100515.94
2022-11-30T13:41:08.678Z,100520.72
2022-11-30T13:43:48.191Z,100512.81
2022-11-30T13:46:20.913Z,100452.00
2022-11-30T13:48:49.910Z,100466.94
2022-11-30T13:51:39.549Z,100496.13
2022-11-30T13:54:39.225Z,100505.63
2022-11-30T13:57:30.347Z,100500.16
2022-11-30T13:59:59.886Z,100491.09
2022-11-30T14:02:33.822Z,100494.66
2022-11-30T14:05:16.908Z,100502.53
2022-11-30T14:07:48.101Z,100496.00
2022-11-30T14:10:32.605Z,100444.66
2022-11-30T14:13:09.832Z,100495.94
2022-11-30T14:15:37.388Z,100502.44
2022-11-30T14:18:08.039Z,100515.25
2022-11-30T14:20:42.427Z,100493.78
2022-11-30T14:23:23.442Z,100481.63
2022-11-30T14:25:54.492Z,100482.22
2022-11-30T14:29:08.619Z,100491.94
2022-11-30T14:31:54.572Z,100486.47
2022-11-30T14:34:29.454Z,100480.44
2022-11-30T14:37:02.680Z,100452.47
2022-11-30T14:39:43.349Z,100459.50
2022-11-30T14:42:24.904Z,100443.03
2022-11-30T14:44:54.143Z,100410.13
2022-11-30T14:47:31.177Z,100478.44
2022-11-30T14:50:02.838Z,100468.69
2022-11-30T14:52:55.579Z,100491.38
2022-11-30T14:55:32.535Z,100490.88
2022-11-30T14:58:19.836Z,100459.91
2022-11-30T15:00:48.465Z,100501.59
2022-11-30T15:03:21.152Z,100494.81
2022-11-30T15:05:52.280Z,100491.09
2022-11-30T15:08:20.432Z,100486.78
2022-11-30T15:10:48.580Z,100500.78
2022-11-30T15:13:19.972Z,100499.69
2022-11-30T15:15:55.872Z,100498.34
2022-11-30T15:18:25.470Z,100465.44
2022-11-30T15:21:11.127Z,100412.31
2022-11-30T15:23:39.027Z,100472.53
2022-11-30T15:26:17.223Z,100441.75
2022-11-30T15:29:00.036Z,100485.28
2022-11-30T15:31:36.671Z,100475.28
2022-11-30T15:34:07.445Z,100476.34
2022-11-30T15:36:38.450Z,100455.38
2022-11-30T15:39:17.034Z,100489.44
2022-11-30T15:41:45.385Z,100487.22
2022-11-30T15:44:44.251Z,100441.91
2022-11-30T15:47:37.805Z,100486.97
2022-11-30T15:50:30.722Z,100488.97
2022-11-30T15:53:20.965Z,100490.06
2022-11-30T15:55:53.175Z,100491.69
2022-11-30T15:58:26.913Z,100476.53
2022-11-30T16:01:05.798Z,100489.53
2022-11-30T16:03:35.188Z,100495.78
2022-11-30T16:06:07.957Z,100506.09
2022-11-30T16:08:35.942Z,100467.97
2022-11-30T16:11:08.010Z,100478.88
2022-11-30T16:13:36.059Z,100499.59
2022-11-30T16:16:12.112Z,100475.00
2022-11-30T16:18:40.050Z,100509.94
2022-11-30T16:21:13.271Z,100510.75
2022-11-30T16:23:40.924Z,100514.25
2022-11-30T16:29:05.099Z,100514.56
2022-11-30T16:31:32.998Z,100453.97
2022-11-30T16:34:00.811Z,100473.53
2022-11-30T16:36:30.874Z,100520.63
2022-11-30T16:39:00.134Z,100516.00
2022-11-30T16:41:28.913Z,100516.28
2022-11-30T16:43:58.512Z,100515.19
2022-11-30T16:46:28.517Z,100527.19
2022-11-30T16:48:58.815Z,100520.91
2022-11-30T16:51:29.031Z,100522.56
2022-11-30T16:53:57.194Z,100526.91
2022-11-30T16:56:25.821Z,100528.00
2022-11-30T16:58:54.339Z,100505.28
2022-11-30T17:01:36.642Z,100526.59
2022-11-30T17:04:15.031Z,100516.63
2022-11-30T17:06:45.721Z,100457.91
2022-11-30T17:09:16.909Z,100527.00
2022-11-30T17:11:46.951Z,100485.06
2022-11-30T17:14:14.710Z,100518.81
2022-11-30T17:16:44.264Z,100525.44
2022-11-30T17:19:14.017Z,100473.22
2022-11-30T17:21:43.168Z,100521.91
2022-11-30T17:24:11.947Z,100529.50
2022-11-30T17:26:39.696Z,100514.44
2022-11-30T17:29:07.867Z,100539.84
2022-11-30T17:31:35.891Z,100539.63
2022-11-30T17:34:03.963Z,100477.72
2022-11-30T17:36:31.967Z,100526.09
2022-11-30T17:38:59.660Z,100532.84
2022-11-30T17:41:28.617Z,100543.72
2022-11-30T17:43:57.225Z,100441.63
2022-11-30T17:46:25.041Z,100507.50
2022-11-30T17:48:53.015Z,100546.34
2022-11-30T17:51:20.671Z,100539.78
2022-11-30T17:53:48.526Z,100543.56
2022-11-30T17:56:17.807Z,100541.41
2022-11-30T17:58:46.332Z,100532.22
2022-11-30T18:01:23.358Z,100552.47
2022-11-30T18:03:52.846Z,100546.28
2022-11-30T18:06:21.132Z,100487.69
2022-11-30T18:08:48.949Z,100540.38
2022-11-30T18:11:22.679Z,100548.75
2022-11-30T18:13:53.704Z,100556.09
2022-11-30T18:16:24.531Z,100525.31
2022-11-30T18:18:53.460Z,100540.75
2022-11-30T18:21:23.718Z,100523.28
2022-11-30T18:23:53.181Z,100558.66
2022-11-30T18:26:22.976Z,100558.44
2022-11-30T18:28:55.916Z,100507.63
2022-11-30T18:31:24.130Z,100557.63
2022-11-30T18:33:59.433Z,100548.19
2022-11-30T18:36:27.617Z,100551.91
2022-11-30T18:38:55.902Z,100507.34
2022-11-30T18:41:26.335Z,100524.63
2022-11-30T18:43:54.836Z,100487.03
2022-11-30T18:46:22.857Z,100516.50
2022-11-30T18:48:52.563Z,100562.78
2022-11-30T18:51:26.514Z,100536.31
2022-11-30T18:53:57.907Z,100567.97
2022-11-30T18:56:28.226Z,100566.91
2022-11-30T18:59:02.167Z,100535.84
2022-11-30T19:01:30.970Z,100498.94
2022-11-30T19:04:01.243Z,100559.38
2022-11-30T19:06:32.466Z,100566.66
2022-11-30T19:09:03.332Z,100475.53
2022-11-30T19:11:34.042Z,100555.00
2022-11-30T19:14:03.352Z,100581.53
2022-11-30T19:16:34.739Z,100579.41
2022-11-30T19:19:07.452Z,100584.03
2022-11-30T19:21:35.518Z,100586.22
2022-11-30T19:24:04.057Z,100531.63
2022-11-30T19:26:31.812Z,100562.94
2022-11-30T19:28:59.532Z,100574.25
2022-11-30T19:31:27.726Z,100568.59
2022-11-30T19:33:55.988Z,100589.94
2022-11-30T19:36:29.957Z,100588.56
2022-11-30T19:38:59.354Z,100526.59
2022-11-30T19:41:28.339Z,100551.25
2022-11-30T19:44:02.770Z,100580.09
2022-11-30T19:46:32.011Z,100492.47
2022-11-30T19:49:01.742Z,100584.13
2022-11-30T19:51:31.151Z,100523.28
2022-11-30T19:54:02.354Z,100532.16
2022-11-30T19:56:32.281Z,100519.75
2022-11-30T19:59:05.073Z,100581.84
2022-11-30T20:01:34.847Z,100577.72
2022-11-30T20:04:03.365Z,100522.66
2022-11-30T20:06:34.294Z,100565.03
2022-11-30T20:09:03.353Z,100569.09
2022-11-30T20:11:31.368Z,100536.72
2022-11-30T20:14:00.473Z,100572.34
2022-11-30T20:16:28.706Z,100534.81
2022-11-30T20:19:01.990Z,100550.56
2022-11-30T20:21:35.071Z,100553.00
2022-11-30T20:24:06.222Z,100567.59
2022-11-30T20:26:43.365Z,100558.66
2022-11-30T20:29:17.020Z,100574.53
2022-11-30T20:31:48.339Z,100579.75
2022-11-30T20:34:17.057Z,100556.81
2022-11-30T20:36:45.556Z,100576.28
2022-11-30T20:39:13.409Z,100576.78
2022-11-30T20:41:41.990Z,100564.06
2022-11-30T20:44:15.544Z,100569.66
2022-11-30T20:46:43.866Z,100586.47
2022-11-30T20:49:18.063Z,100551.84
2022-11-30T20:51:47.054Z,100532.59
2022-11-30T20:54:16.266Z,100570.19
2022-11-30T20:56:44.097Z,100575.00
2022-11-30T20:59:17.259Z,100556.66
2022-11-30T21:01:47.319Z,100546.63
2022-11-30T21:04:15.205Z,100588.31
2022-11-30T21:06:45.651Z,100563.25
2022-11-30T21:09:18.737Z,100585.41
2022-11-30T21:11:47.728Z,100590.03
2022-11-30T21:14:17.912Z,100528.44
2022-11-30T21:16:46.457Z,100572.75
2022-11-30T21:19:16.041Z,100540.59
2022-11-30T21:21:43.853Z,100581.16
2022-11-30T21:24:12.051Z,100575.88
2022-11-30T21:26:42.449Z,100558.56
2022-11-30T21:29:16.110Z,100556.81
2022-11-30T21:31:44.032Z,100542.31
2022-11-30T21:34:12.574Z,100580.44
2022-11-30T21:36:41.289Z,100569.44
2022-11-30T21:39:10.497Z,100519.59
2022-11-30T21:41:39.957Z,100581.31
2022-11-30T21:44:12.152Z,100597.53
2022-11-30T21:46:40.815Z,100573.72
2022-11-30T21:49:10.100Z,100597.00
2022-11-30T21:51:38.066Z,100598.94
2022-11-30T21:54:08.486Z,100568.56
2022-11-30T21:56:38.666Z,100592.66
2022-11-30T21:59:09.021Z,100595.03
2022-11-30T22:01:39.412Z,100605.69
2022-11-30T22:04:09.358Z,100570.50
2022-11-30T22:06:39.523Z,100592.66
2022-11-30T22:09:12.428Z,100602.44
2022-11-30T22:11:42.350Z,100601.41
2022-11-30T22:14:18.532Z,100594.91
2022-11-30T22:16:46.587Z,100538.91
2022-11-30T22:19:16.322Z,100589.19
2022-11-30T22:21:49.662Z,100591.09
2022-11-30T22:24:17.888Z,100582.75
2022-11-30T22:26:47.054Z,100603.94
2022-11-30T22:29:24.246Z,100582.28
2022-11-30T22:31:54.012Z,100538.22
2022-11-30T22:34:22.083Z,100589.91
2022-11-30T22:36:49.761Z,100558.81
2022-11-30T22:39:20.405Z,100578.28
2022-11-30T22:41:55.321Z,100591.59
2022-11-30T22:44:25.292Z,100595.88
2022-11-30T22:46:53.277Z,100546.94
2022-11-30T22:49:22.141Z,100518.03
2022-11-30T22:51:51.013Z,100529.09
2022-11-30T22:54:19.175Z,100615.78
2022-11-30T22:56:47.066Z,100603.28
2022-11-30T22:59:15.867Z,100602.72
2022-11-30T23:01:47.221Z,100606.75
2022-11-30T23:04:18.564Z,100576.47
2022-11-30T23:06:48.386Z,100577.78
2022-11-30T23:09:22.859Z,100601.53
2022-11-30T23:11:51.633Z,100613.59
2022-11-30T23:14:19.916Z,100526.47
2022-11-30T23:16:47.845Z,100584.84
2022-11-30T23:19:16.336Z,100564.00
2022-11-30T23:21:47.441Z,100552.94
2022-11-30T23:24:23.954Z,100554.00
2022-11-30T23:26:51.670Z,100600.56
2022-11-30T23:29:19.424Z,100554.00
2022-11-30T23:31:47.385Z,100596.22
2022-11-30T23:34:21.662Z,100590.47
2022-11-30T23:36:50.468Z,100595.09
2022-11-30T23:39:20.969Z,100566.69
2022-11-30T23:41:48.732Z,100589.44
2022-11-30T23:44:17.392Z,100587.00
2022-11-30T23:46:45.490Z,100523.72
2022-11-30T23:49:17.100Z,100559.38
2022-11-30T23:51:45.121Z,100575.06
2022-11-30T23:54:12.808Z,100585.91
2022-11-30T23:56:41.885Z,100579.91
2022-11-30T23:59:09.625Z,100558.06
